| time (UTC) | temp C | wind direction | speed KPH | gust KPH | rain 1hr cm | rain 24hr cm | rain mn cm | humidity % | barometer mb |
| 20260506133949 | 10 | 200 | 3.2 | 3.2 | 0.00 | 0.00 | 0.00 | 92 | 1018.1 |
| 20260506132948 | 10 | 141 | 1.6 | 1.6 | 0.00 | 0.00 | 0.00 | 91 | 1018.1 |
| 20260506131948 | 10 | 263 | 3.2 | 3.2 | 0.00 | 0.00 | 0.00 | 91 | 1018.2 |
| 20260506130947 | 10 | 164 | 3.2 | 3.2 | 0.00 | 0.00 | 0.00 | 91 | 1017.9 |
| 20260506125942 | 10 | 246 | 3.2 | 3.2 | 0.00 | 0.00 | 0.00 | 90 | 1018.0 |
| 20260506124938 | 10 | 243 | 3.2 | 3.2 | 0.00 | 0.00 | 0.00 | 90 | 1018.1 |
| 20260506123933 | 10 | 69 | 0.0 | 1.6 | 0.00 | 0.00 | 0.00 | 90 | 1018.3 |
| 20260506122928 | 10 | 40 | 0.0 | 0.0 | 0.00 | 0.00 | 0.00 | 91 | 1018.2 |
| 20260506121923 | 10 | 243 | 1.6 | 1.6 | 0.00 | 0.00 | 0.00 | 91 | 1017.9 |
| 20260506120923 | 10 | 124 | 1.6 | 3.2 | 0.00 | 0.00 | 0.00 | 91 | 1018.2 |
| 20260506115917 | 10 | 218 | 4.8 | 4.8 | 0.00 | 0.00 | 0.00 | 91 | 1018.0 |
| 20260506114913 | 10 | 161 | 4.8 | 4.8 | 0.00 | 0.00 | 0.00 | 91 | 1017.7 |
| 20260506113909 | 10 | 128 | 4.8 | 4.8 | 0.00 | 0.00 | 0.00 | 91 | 1018.0 |
| 20260506112908 | 10 | 33 | 0.0 | 0.0 | 0.00 | 0.00 | 0.00 | 91 | 1017.9 |
| 20260506111903 | 10 | 69 | 3.2 | 3.2 | 0.00 | 0.00 | 0.00 | 91 | 1017.8 |
| 20260506110858 | 10 | 77 | 1.6 | 1.6 | 0.00 | 0.00 | 0.00 | 91 | 1017.4 |
| 20260506105858 | 10 | 36 | 0.0 | 0.0 | 0.00 | 0.00 | 0.00 | 91 | 1017.6 |
| 20260506104858 | 10 | 47 | 1.6 | 1.6 | 0.00 | 0.00 | 0.00 | 91 | 1017.3 |
| 20260506103853 | 10 | 31 | 0.0 | 0.0 | 0.00 | 0.00 | 0.00 | 91 | 1017.2 |
| 20260506102853 | 10 | 36 | 0.0 | 1.6 | 0.00 | 0.00 | 0.00 | 91 | 1017.3 |
| 20260506101848 | 10 | 43 | 0.0 | 1.6 | 0.00 | 0.00 | 0.00 | 92 | 1016.9 |
| 20260506100848 | 10 | 43 | 0.0 | 0.0 | 0.00 | 0.00 | 0.00 | 92 | 1016.9 |
| 20260506095844 | 10 | 57 | 0.0 | 0.0 | 0.00 | 0.00 | 0.00 | 92 | 1016.8 |
| 20260506094844 | 10 | 31 | 0.0 | 0.0 | 0.00 | 0.00 | 0.00 | 93 | 1016.9 |
| 20260506093840 | 10 | 38 | 0.0 | 0.0 | 0.00 | 0.00 | 0.00 | 93 | 1016.9 |
| 20260506092835 | 10 | 180 | 4.8 | 4.8 | 0.00 | 0.00 | 0.00 | 94 | 1016.9 |
| 20260506091835 | 10 | 66 | 0.0 | 0.0 | 0.00 | 0.00 | 0.00 | 94 | 1016.7 |
| 20260506090830 | 10 | 70 | 0.0 | 0.0 | 0.00 | 0.00 | 0.00 | 94 | 1016.7 |
| 20260506085830 | 10 | 3 | 3.2 | 4.8 | 0.00 | 0.00 | 0.00 | 94 | 1016.7 |
| 20260506084829 | 10 | 41 | 0.0 | 1.6 | 0.00 | 0.00 | 0.00 | 94 | 1016.8 |
| 20260506083828 | 10 | 33 | 0.0 | 0.0 | 0.00 | 0.00 | 0.00 | 94 | 1016.7 |
| 20260506082823 | 10 | 35 | 1.6 | 1.6 | 0.00 | 0.00 | 0.00 | 94 | 1016.6 |
| 20260506081821 | 10 | 35 | 0.0 | 0.0 | 0.00 | 0.00 | 0.00 | 94 | 1016.7 |
| 20260506080817 | 10 | 27 | 0.0 | 0.0 | 0.00 | 0.00 | 0.00 | 94 | 1016.5 |
| 20260506072818 | 10 | 31 | 0.0 | 0.0 | 0.00 | 0.00 | 0.00 | 93 | 1016.0 |
| 20260506071813 | 10 | 44 | 0.0 | 0.0 | 0.00 | 0.00 | 0.00 | 93 | 1016.0 |
| 20260506070813 | 10 | 7 | 0.0 | 1.6 | 0.00 | 0.00 | 0.00 | 93 | 1016.0 |
| 20260506061801 | 10 | 49 | 1.6 | 1.6 | 0.00 | 0.00 | 0.00 | 92 | 1015.8 |
| 20260506060757 | 10 | 60 | 4.8 | 4.8 | 0.00 | 0.00 | 0.00 | 92 | 1015.7 |
| 20260506050747 | 11 | 44 | 1.6 | 1.6 | 0.00 | 0.00 | 0.00 | 91 | 1015.6 |
| 20260506044746 | 11 | 54 | 1.6 | 1.6 | 0.00 | 0.00 | 0.00 | 91 | 1015.5 |
| 20260506043747 | 11 | 47 | 0.0 | 0.0 | 0.00 | 0.00 | 0.00 | 90 | 1015.2 |
| 20260506042743 | 11 | 22 | 1.6 | 3.2 | 0.00 | 0.00 | 0.00 | 90 | 1015.2 |
| 20260506041739 | 11 | 179 | 3.2 | 3.2 | 0.00 | 0.00 | 0.00 | 90 | 1015.1 |
| 20260506040739 | 11 | 55 | 0.0 | 0.0 | 0.00 | 0.00 | 0.00 | 90 | 1014.8 |
| 20260506035738 | 11 | 37 | 0.0 | 0.0 | 0.00 | 0.00 | 0.00 | 89 | 1014.9 |
| 20260506034738 | 11 | 39 | 0.0 | 0.0 | 0.00 | 0.00 | 0.00 | 89 | 1014.7 |
| 20260506033738 | 12 | 46 | 0.0 | 0.0 | 0.00 | 0.00 | 0.00 | 88 | 1014.7 |
| 20260506032737 | 12 | 28 | 0.0 | 0.0 | 0.00 | 0.00 | 0.00 | 87 | 1014.3 |
| 20260506031737 | 12 | 24 | 0.0 | 1.6 | 0.00 | 0.00 | 0.00 | 87 | 1014.5 |
| 20260506030733 | 12 | 222 | 1.6 | 3.2 | 0.00 | 0.00 | 0.00 | 86 | 1014.4 |
| 20260506025732 | 12 | 185 | 4.8 | 4.8 | 0.00 | 0.00 | 0.00 | 85 | 1014.5 |
| 20260506024732 | 13 | 58 | 3.2 | 3.2 | 0.00 | 0.00 | 0.00 | 84 | 1014.5 |
| 20260506023731 | 13 | 55 | 0.0 | 1.6 | 0.00 | 0.00 | 0.00 | 83 | 1014.4 |
| 20260506022730 | 13 | 70 | 1.6 | 1.6 | 0.00 | 0.00 | 0.00 | 82 | 1014.4 |
| 20260506021726 | 14 | 18 | 0.0 | 1.6 | 0.00 | 0.00 | 0.00 | 81 | 1014.2 |
| 20260506020725 | 14 | 204 | 4.8 | 4.8 | 0.00 | 0.00 | 0.00 | 80 | 1014.5 |
| 20260506015721 | 15 | 191 | 3.2 | 4.8 | 0.00 | 0.00 | 0.00 | 80 | 1014.5 |
| 20260506014721 | 15 | 121 | 4.8 | 4.8 | 0.00 | 0.00 | 0.00 | 80 | 1014.4 |
| 20260506013720 | 15 | 169 | 4.8 | 4.8 | 0.00 | 0.00 | 0.00 | 79 | 1014.4 |
| 20260506012719 | 15 | 247 | 4.8 | 4.8 | 0.00 | 0.00 | 0.00 | 79 | 1014.5 |
| 20260506011719 | 16 | 205 | 1.6 | 3.2 | 0.00 | 0.00 | 0.00 | 77 | 1014.7 |
| 20260506010714 | 16 | 62 | 1.6 | 1.6 | 0.00 | 0.00 | 0.00 | 76 | 1014.5 |
| 20260506005714 | 16 | 2 | 4.8 | 8.0 | 0.00 | 0.00 | 0.00 | 76 | 1014.5 |
| 20260506004712 | 16 | 144 | 4.8 | 4.8 | 0.00 | 0.00 | 0.00 | 76 | 1014.4 |
| 20260506003711 | 15 | 351 | 3.2 | 4.8 | 0.00 | 0.00 | 0.00 | 78 | 1014.3 |
| 20260506002709 | 16 | 32 | 4.8 | 8.0 | 0.00 | 0.00 | 0.00 | 77 | 1014.8 |
| 20260506001707 | 16 | 26 | 3.2 | 3.2 | 0.00 | 0.00 | 0.00 | 78 | 1014.5 |
| 20260506000702 | 16 | 353 | 4.8 | 4.8 | 0.00 | 0.00 | 0.00 | 78 | 1014.8 |
| 20260505235657 | 16 | 218 | 4.8 | 4.8 | 0.00 | 0.00 | 0.00 | 78 | 1014.7 |
| 20260505234657 | 16 | 16 | 6.4 | 8.0 | 0.00 | 0.00 | 0.00 | 78 | 1014.9 |
| 20260505233656 | 16 | 41 | 1.6 | 3.2 | 0.00 | 0.00 | 0.00 | 76 | 1014.8 |
| 20260505232651 | 16 | 352 | 1.6 | 3.2 | 0.00 | 0.00 | 0.00 | 77 | 1015.1 |
| 20260505231651 | 17 | 18 | 4.8 | 8.0 | 0.00 | 0.00 | 0.00 | 75 | 1015.1 |
| 20260505230648 | 16 | 176 | 1.6 | 3.2 | 0.00 | 0.00 | 0.00 | 76 | 1015.1 |
| 20260505225646 | 17 | 16 | 3.2 | 4.8 | 0.00 | 0.00 | 0.00 | 74 | 1015.2 |
| 20260505224644 | 16 | 200 | 3.2 | 3.2 | 0.00 | 0.00 | 0.00 | 78 | 1015.3 |
| 20260505223640 | 16 | 206 | 3.2 | 3.2 | 0.00 | 0.00 | 0.00 | 77 | 1015.1 |
| 20260505222638 | 16 | 239 | 4.8 | 4.8 | 0.00 | 0.00 | 0.00 | 78 | 1015.4 |
| 20260505221637 | 17 | 70 | 1.6 | 1.6 | 0.00 | 0.00 | 0.00 | 76 | 1015.3 |
| 20260505220637 | 16 | 185 | 6.4 | 8.0 | 0.00 | 0.00 | 0.00 | 79 | 1015.6 |
| 20260505215637 | 16 | 141 | 6.4 | 9.7 | 0.00 | 0.00 | 0.00 | 79 | 1015.5 |
| 20260505214633 | 15 | 44 | 0.0 | 0.0 | 0.00 | 0.00 | 0.00 | 81 | 1015.6 |
| 20260505213628 | 15 | 20 | 1.6 | 3.2 | 0.00 | 0.00 | 0.00 | 82 | 1015.8 |
| 20260505212626 | 15 | 31 | 0.0 | 0.0 | 0.00 | 0.00 | 0.00 | 84 | 1015.8 |
| 20260505211621 | 15 | 45 | 1.6 | 1.6 | 0.00 | 0.00 | 0.00 | 84 | 1015.8 |
| 20260505210620 | 15 | 31 | 0.0 | 0.0 | 0.00 | 0.00 | 0.00 | 83 | 1015.7 |
| 20260505205620 | 15 | 342 | 6.4 | 9.7 | 0.00 | 0.00 | 0.00 | 83 | 1015.8 |
| 20260505204615 | 15 | 27 | 3.2 | 3.2 | 0.00 | 0.00 | 0.00 | 83 | 1015.8 |
| 20260505203615 | 15 | 30 | 1.6 | 1.6 | 0.00 | 0.00 | 0.00 | 82 | 1015.9 |
| 20260505202614 | 15 | 268 | 1.6 | 3.2 | 0.00 | 0.00 | 0.00 | 82 | 1015.6 |
| 20260505201613 | 15 | 181 | 3.2 | 3.2 | 0.00 | 0.00 | 0.00 | 84 | 1015.8 |
| 20260505200608 | 15 | 333 | 0.0 | 1.6 | 0.00 | 0.00 | 0.00 | 84 | 1015.9 |
| 20260505195607 | 14 | 19 | 1.6 | 1.6 | 0.00 | 0.00 | 0.00 | 85 | 1015.9 |
| 20260505194602 | 13 | 68 | 1.6 | 3.2 | 0.00 | 0.00 | 0.00 | 86 | 1015.9 |
| 20260505193600 | 13 | 62 | 1.6 | 3.2 | 0.00 | 0.00 | 0.00 | 86 | 1015.9 |
| 20260505192556 | 14 | 13 | 1.6 | 3.2 | 0.00 | 0.00 | 0.00 | 86 | 1015.8 |
| 20260505191551 | 14 | 31 | 0.0 | 0.0 | 0.00 | 0.00 | 0.00 | 85 | 1016.0 |
| 20260505190549 | 14 | 83 | 3.2 | 3.2 | 0.00 | 0.00 | 0.00 | 85 | 1015.8 |
| 20260505185548 | 14 | 109 | 4.8 | 4.8 | 0.00 | 0.00 | 0.00 | 85 | 1015.9 |
| 20260505184547 | 13 | 77 | 1.6 | 3.2 | 0.00 | 0.00 | 0.00 | 86 | 1015.5 |
| 20260505183547 | 13 | 161 | 4.8 | 4.8 | 0.00 | 0.00 | 0.00 | 86 | 1015.7 |
| 20260505182546 | 13 | 186 | 4.8 | 4.8 | 0.00 | 0.00 | 0.00 | 87 | 1015.8 |
| 20260505181546 | 13 | 170 | 6.4 | 8.0 | 0.00 | 0.00 | 0.00 | 87 | 1015.9 |
| 20260505180544 | 13 | 203 | 4.8 | 8.0 | 0.00 | 0.00 | 0.00 | 87 | 1015.7 |
| 20260505175543 | 13 | 225 | 4.8 | 4.8 | 0.00 | 0.00 | 0.00 | 87 | 1015.7 |
| 20260505174543 | 13 | 181 | 8.0 | 9.7 | 0.00 | 0.00 | 0.00 | 87 | 1015.7 |
| 20260505173542 | 13 | 184 | 8.0 | 9.7 | 0.00 | 0.00 | 0.00 | 88 | 1015.6 |
| 20260505172542 | 13 | 183 | 6.4 | 8.0 | 0.00 | 0.00 | 0.00 | 88 | 1015.6 |
| 20260505171539 | 13 | 180 | 8.0 | 9.7 | 0.00 | 0.00 | 0.00 | 89 | 1015.4 |
| 20260505170538 | 13 | 195 | 4.8 | 4.8 | 0.00 | 0.00 | 0.00 | 89 | 1015.5 |
| 20260505165536 | 13 | 180 | 4.8 | 4.8 | 0.00 | 0.00 | 0.00 | 89 | 1015.5 |
| 20260505164534 | 12 | 194 | 8.0 | 8.0 | 0.00 | 0.00 | 0.00 | 89 | 1015.5 |
| 20260505163531 | 12 | 170 | 6.4 | 8.0 | 0.00 | 0.00 | 0.00 | 90 | 1015.4 |
| 20260505162526 | 12 | 217 | 6.4 | 8.0 | 0.00 | 0.00 | 0.00 | 90 | 1015.4 |
| 20260505161525 | 12 | 165 | 3.2 | 3.2 | 0.00 | 0.00 | 0.00 | 90 | 1015.5 |
| 20260505160521 | 12 | 170 | 3.2 | 3.2 | 0.00 | 0.00 | 0.00 | 90 | 1015.4 |
| 20260505152517 | 12 | 222 | 4.8 | 4.8 | 0.00 | 0.00 | 0.00 | 92 | 1015.2 |
| 20260505151513 | 12 | 199 | 4.8 | 4.8 | 0.00 | 0.00 | 0.00 | 92 | 1015.1 |
| 20260505150513 | 12 | 207 | 4.8 | 4.8 | 0.00 | 0.00 | 0.00 | 92 | 1014.9 |
| 20260505140501 | 11 | 46 | 0.0 | 0.0 | 0.00 | 0.00 | 0.00 | 91 | 1014.4 |